• Join FlightAware (Why Join?)
  • Login
  • US Flag 
05:58AM EDT


 

Airport Tracker/Info


-or-


 

Live Flight TrackerFlight Track Log ✈ UPS1337 ✈ 22-Feb-2014 ✈ KRDU - KSDF

Flight Track Log - Related Links

Times and Time Zones

All times are in EST time to prevent confusion due to time zone crossing. See the UPS1337 flight status page for this flight to view local times or setup timezone preferences in your user account.

Time Position Orientation Groundspeed Altitude Reporting Facility
EST Latitude Longitude Course Direction KTS MPH feet Rate Location/Type
11:48PM 35.8708 -78.8064 264° West 162 186 1,500  Level Washington Center
11:48PM 35.8622 -78.8161 236° Southwest 171 197 2,300 2,940 Climbing Washington Center
11:49PM 35.8256 -78.8583 223° Southwest 216 249 5,000 2,580 Climbing Washington Center
11:49PM 35.8236 -78.8583 180° South 197 227 5,000 3,600 Level Washington Center
11:50PM 35.8169 -78.9425 264° West 266 306 8,700 3,660 Climbing Washington Center
11:51PM 35.8253 -79.0247 277° West 268 308 12,200 2,580 Climbing Washington Center
11:52PM 35.8437 -79.1591 264° West  Level FlightAware Approximate
11:52PM 35.8283 -79.1275 272° West 292 336 13,900  Level Washington Center
11:53PM 35.8338 -79.2775 264° West  Level FlightAware Approximate
11:54PM 35.8297 -79.3722 270° West 359 413 19,900  Level Atlanta Center
11:55PM 35.8178 -79.4983 263° West 367 422 22,600 2,640 Climbing Atlanta Center
11:56PM 35.7997 -79.6325 261° West 372 428 25,200 2,220 Climbing Atlanta Center
11:57PM 35.7772 -79.7592 258° West 372 428 27,100 2,100 Climbing Atlanta Center
11:58PM 35.7567 -79.8881 259° West 383 441 29,400 2,220 Climbing Atlanta Center
11:59PM 35.7336 -80.0147 257° West 383 441 31,600 1,260 Climbing Atlanta Center
12:00AM 35.7669 -80.1436 288° West 374 430 32,000 180 Climbing Atlanta Center
12:01AM 35.8081 -80.2517 295° West 380 437 32,000  Level Atlanta Center
12:02AM 35.8558 -80.3903 293° West 391 450 32,000  Level Atlanta Center
12:03AM 35.8972 -80.5142 292° West 396 456 32,000  Level Atlanta Center
12:04AM 35.9358 -80.6331 292° West 391 450 32,000  Level Atlanta Center
12:05AM 35.9789 -80.7544 294° West 386 444 32,000  Level Atlanta Center
12:06AM 36.0197 -80.8783 292° West 386 444 32,000  Level Atlanta Center
12:07AM 36.0603 -80.9975 293° West 386 444 32,000  Level Atlanta Center
12:08AM 36.0986 -81.1194 291° West 386 444 32,000  Level Atlanta Center
12:09AM 36.1369 -81.2389 292° West 386 444 32,000  Level Atlanta Center
12:10AM 36.1792 -81.3636 293° West 386 444 32,000  Level Atlanta Center
12:11AM 36.2150 -81.4731 292° West 391 450 32,000  Level Atlanta Center
12:12AM 36.2528 -81.5928 291° West 384 442 32,000  Level Atlanta Center
12:13AM 36.2928 -81.7125 293° West 384 442 32,000  Level Atlanta Center
12:14AM 36.3303 -81.8300 292° West 379 436 32,000  Level Atlanta Center
12:15AM 36.3658 -81.9478 291° West 374 430 32,000  Level Atlanta Center
12:16AM 36.4033 -82.0656 292° West 374 430 32,000  Level Atlanta Center
12:17AM 36.4425 -82.1858 292° West 368 423 32,000  Level Atlanta Center
12:18AM 36.4797 -82.3036 291° West 368 423 32,000  Level Atlanta Center
12:19AM 36.5192 -82.4319 291° West 368 423 32,000  Level Atlanta Center
12:20AM 36.5561 -82.5528 291° West 368 423 32,000  Level Atlanta Center
12:22AM 36.6133 -82.7258 292° West 370 426 32,000  Level Indianapolis Center
12:23AM 36.6500 -82.8469 291° West 370 426 32,000  Level Indianapolis Center
12:24AM 36.6872 -82.9683 291° West 370 426 32,000  Level Indianapolis Center
12:25AM 36.7256 -83.0900 291° West 370 426 32,000  Level Indianapolis Center
12:26AM 36.7625 -83.2122 291° West 371 427 32,000  Level Indianapolis Center
12:27AM 36.7992 -83.3339 291° West 371 427 32,000  Level Indianapolis Center
12:28AM 36.8361 -83.4547 291° West 371 427 32,000  Level Indianapolis Center
12:29AM 36.8725 -83.5753 291° West 371 427 32,000  Level Indianapolis Center
12:30AM 36.9153 -83.7153 291° West 371 427 32,000  Level Indianapolis Center
12:31AM 36.9775 -83.8239 306° West 379 436 32,000 -420 Level Indianapolis Center
12:36AM 37.3231 -84.3934 306° West 375 432 29,500 -780 Descending FlightAware ADS-B (KBRY)
12:37AM 37.3650 -84.4628 306° West 380 437 27,400 -3,300 Descending Indianapolis Center
12:42AM 37.6856 -84.9966 306° West 337 388 9,900 -2,700 Descending FlightAware ADS-B (KBRY)
12:43AM 37.7641 -85.1045 313° West 340 391 9,900  Level FlightAware ADS-B (KBRY)
12:44AM 37.8275 -85.1919 313° West 336 387 9,900  Level FlightAware ADS-B (KBRY)
12:45AM 37.8969 -85.2879 313° West 336 387 9,900  Level FlightAware ADS-B (KBRY)
12:46AM 37.9502 -85.3777 307° West 282 325 10,000  Climbing FlightAware ADS-B (KBRY)
12:47AM 37.9723 -85.4618 288° West 232 267 9,900 -840 Descending FlightAware ADS-B (KBRY)
12:48AM 37.9923 -85.5398 288° West 234 269 8,400 -1,620 Descending FlightAware ADS-B (KBRY)
12:49AM 38.0131 -85.6178 289° West 233 268 6,700 -1,200 Descending FlightAware ADS-B (KBRY)
12:51AM 38.0378 -85.7032 290° West 214 246 5,900 -420 Descending FlightAware ADS-B (KBRY)
12:52AM 38.0583 -85.7684 292° West 197 227 5,900  Level FlightAware ADS-B (KBRY)
12:53AM 38.0988 -85.8157 317° Northwest 229 264 6,000  Climbing FlightAware ADS-B (KBRY)
12:54AM 38.1606 -85.8343 347° North 226 260 5,900 -720 Descending FlightAware ADS-B (KBRY)
12:55AM 38.2753 -85.8677 347° North 227 261 4,000 -1,080 Descending FlightAware ADS-B (KJVY)
12:56AM 38.3005 -85.8748 348° North 226 260 3,500 -1,140 Descending FlightAware ADS-B (KJVY)
12:56AM 38.3268 -85.8823 347° North 230 265 3,100 -840 Descending FlightAware ADS-B (KJVY)
12:56AM 38.3391 -85.8848 351° North 242 278 3,000 -540 Descending FlightAware ADS-B (KJVY)
12:57AM 38.3515 -85.8826 North 255 293 2,900  Descending FlightAware ADS-B (KJVY)
12:57AM 38.3648 -85.8723 31° Northeast 267 307 3,000  Climbing FlightAware ADS-B (KJVY)
12:57AM 38.3734 -85.8589 51° Northeast 266 306 2,900  Descending FlightAware ADS-B (KJVY)
12:57AM 38.3775 -85.8383 76° East 258 297 3,000  Climbing FlightAware ADS-B (KJVY)
12:57AM 38.3752 -85.8209 100° East 245 282 2,900  Descending FlightAware ADS-B (KJVY)
12:58AM 38.3732 -85.8148 113° Southeast 219 252 3,000  Climbing FlightAware ADS-B (KJVY)
12:58AM 38.3364 -85.7978 160° South 178 205 2,900 -180 Descending FlightAware ADS-B (KJVY)
12:59AM 38.3021 -85.7867 166° South 165 190 2,800 -420 Descending FlightAware ADS-B (KJVY)
01:00AM 38.2667 -85.7667 166° South 142 163 2,200 -660 Descending Louisville TRACON